Aérodrome :
LOGIN :

S'inscrire | Disclaimer

   EN    FR    IT 

 










Légende :    VFR   VFR Marginal   IFR   IFR Intensif   IFR Très Intensif
Visi : 
Plafond : 
>= 8 km
>= 3000ft
5 à 8 km
1000 à 3000 ft
1500m à 5 km
500 à 1000 ft
800 à 1500m
200 à 500 ft
< 800m
< 200 ft
Symboles :   Orages  Brouillard  Fortes neiges  Fortes précipitations  Vent > 20 kt
SIGMETs :   Divers  Orages  Givrage  Turbulence  Onde Orograph.  Cendres Volcan.






- Altitude de l'aérodrome : 156 ft
- Code IATA : OMO


LQMO - Mostar

DERNIER METAR :
  • 121300Z 15017G27KT 9999 -RA SCT055 BKN070 18/12 Q1002

METARs EXPIRÉS :
  • 121200Z 12023KT 9999 -RA SCT055 BKN070 18/12 Q0999
  • 121130Z 16025G38KT 4700 +RA SCT055 BKN070 17/14 Q1003
  • 121100Z VRB05KT 9999 -RA BKN075 13/11 Q1000

TAF TAF LQMO
Valide du 12 à 12h jusqu'au 13 à 12h UTC


121100Z 1212/1312 14010KT 9999 -RA SCT025 BKN050 TX16/1213Z TN10/1306Z
TEMPO 1212/1312 15015G25KT RA
PROB30
TEMPO 1212/1215 18020G35KT TSRA SCT015 FEW033CB BKN043
PROB40
TEMPO 1306/1312 18015G25KT TSRA SCT017 FEW030CB BKN040



MET'MAP, la Météo Aéronautique d'un coup d'oeil ! - Copyright ORBIFLY Décembre 2007 - Disclaimer

ORBIFLY MET'MAP TEAM :

Programmation & Développement : Alexandra Zaïnal
Conception & Développement : Baudouin d'Aumeries
Co-Programmation & Développement : Marc-Olivier Méhu
Soutien technique & logistique : Manuel Goepfert

Contact : metmap@orbifly.com




SOURCES & CREDITS :

   NOAA